sensor_id;sensor_type;location;lat;lon;timestamp;P1;durP1;ratioP1;P2;durP2;ratioP2
5357;SDS011;2702;51.014;7.170;2023-08-08T00:01:25;3.03;;;2.43;;
5357;SDS011;2702;51.014;7.170;2023-08-08T00:03:52;2.63;;;2.00;;
5357;SDS011;2702;51.014;7.170;2023-08-08T00:06:18;3.10;;;2.40;;
5357;SDS011;2702;51.014;7.170;2023-08-08T00:08:44;3.50;;;2.33;;
5357;SDS011;2702;51.014;7.170;2023-08-08T00:11:11;2.30;;;1.70;;
5357;SDS011;2702;51.014;7.170;2023-08-08T00:13:37;2.60;;;2.23;;
5357;SDS011;2702;51.014;7.170;2023-08-08T00:16:04;4.13;;;2.33;;
5357;SDS011;2702;51.014;7.170;2023-08-08T00:18:30;3.73;;;2.30;;
5357;SDS011;2702;51.014;7.170;2023-08-08T00:20:57;3.53;;;2.57;;
5357;SDS011;2702;51.014;7.170;2023-08-08T00:23:23;3.00;;;2.60;;
5357;SDS011;2702;51.014;7.170;2023-08-08T00:25:50;3.43;;;2.77;;
5357;SDS011;2702;51.014;7.170;2023-08-08T00:28:17;5.50;;;2.77;;
5357;SDS011;2702;51.014;7.170;2023-08-08T00:30:44;3.90;;;2.30;;
5357;SDS011;2702;51.014;7.170;2023-08-08T00:33:11;2.60;;;2.20;;
5357;SDS011;2702;51.014;7.170;2023-08-08T00:35:37;2.73;;;2.53;;
5357;SDS011;2702;51.014;7.170;2023-08-08T00:38:04;3.77;;;2.63;;
5357;SDS011;2702;51.014;7.170;2023-08-08T00:40:30;3.17;;;2.63;;
5357;SDS011;2702;51.014;7.170;2023-08-08T00:42:58;2.47;;;2.20;;
5357;SDS011;2702;51.014;7.170;2023-08-08T00:45:25;5.63;;;3.07;;
5357;SDS011;2702;51.014;7.170;2023-08-08T00:47:51;2.70;;;2.50;;
5357;SDS011;2702;51.014;7.170;2023-08-08T00:50:18;4.37;;;3.00;;
5357;SDS011;2702;51.014;7.170;2023-08-08T00:52:44;4.37;;;2.47;;
5357;SDS011;2702;51.014;7.170;2023-08-08T00:55:11;3.40;;;3.10;;
5357;SDS011;2702;51.014;7.170;2023-08-08T00:57:37;5.00;;;3.00;;
5357;SDS011;2702;51.014;7.170;2023-08-08T01:00:05;3.93;;;2.63;;
5357;SDS011;2702;51.014;7.170;2023-08-08T01:02:35;3.10;;;2.73;;
5357;SDS011;2702;51.014;7.170;2023-08-08T01:05:02;4.23;;;2.77;;
5357;SDS011;2702;51.014;7.170;2023-08-08T01:07:30;4.80;;;3.27;;
5357;SDS011;2702;51.014;7.170;2023-08-08T01:10:21;2.87;;;2.63;;
5357;SDS011;2702;51.014;7.170;2023-08-08T01:13:02;3.50;;;3.20;;
5357;SDS011;2702;51.014;7.170;2023-08-08T01:15:31;4.00;;;2.87;;
5357;SDS011;2702;51.014;7.170;2023-08-08T01:18:05;3.47;;;3.17;;
5357;SDS011;2702;51.014;7.170;2023-08-08T01:20:34;3.13;;;2.83;;
5357;SDS011;2702;51.014;7.170;2023-08-08T01:25:30;4.00;;;3.30;;
5357;SDS011;2702;51.014;7.170;2023-08-08T01:27:57;3.40;;;3.10;;
5357;SDS011;2702;51.014;7.170;2023-08-08T01:30:24;4.23;;;3.00;;
5357;SDS011;2702;51.014;7.170;2023-08-08T01:32:50;3.57;;;3.23;;
5357;SDS011;2702;51.014;7.170;2023-08-08T01:35:16;4.40;;;3.70;;
5357;SDS011;2702;51.014;7.170;2023-08-08T01:37:49;4.00;;;2.77;;
5357;SDS011;2702;51.014;7.170;2023-08-08T01:40:18;4.03;;;3.73;;
5357;SDS011;2702;51.014;7.170;2023-08-08T01:42:47;3.50;;;3.20;;
5357;SDS011;2702;51.014;7.170;2023-08-08T01:45:15;3.80;;;3.10;;
5357;SDS011;2702;51.014;7.170;2023-08-08T01:47:42;3.53;;;3.23;;
5357;SDS011;2702;51.014;7.170;2023-08-08T01:50:09;6.80;;;3.30;;
5357;SDS011;2702;51.014;7.170;2023-08-08T01:52:35;3.10;;;2.90;;
5357;SDS011;2702;51.014;7.170;2023-08-08T01:55:02;5.90;;;3.20;;
5357;SDS011;2702;51.014;7.170;2023-08-08T01:57:29;3.33;;;2.73;;
5357;SDS011;2702;51.014;7.170;2023-08-08T01:59:58;5.17;;;3.40;;
5357;SDS011;2702;51.014;7.170;2023-08-08T02:02:25;4.00;;;2.83;;
5357;SDS011;2702;51.014;7.170;2023-08-08T02:04:53;3.60;;;3.30;;
5357;SDS011;2702;51.014;7.170;2023-08-08T02:07:20;3.30;;;3.00;;
5357;SDS011;2702;51.014;7.170;2023-08-08T02:09:46;4.07;;;3.50;;
5357;SDS011;2702;51.014;7.170;2023-08-08T02:12:13;3.70;;;2.80;;
5357;SDS011;2702;51.014;7.170;2023-08-08T02:14:39;4.30;;;3.90;;
5357;SDS011;2702;51.014;7.170;2023-08-08T02:17:05;4.07;;;3.77;;
5357;SDS011;2702;51.014;7.170;2023-08-08T02:19:32;3.43;;;2.67;;
5357;SDS011;2702;51.014;7.170;2023-08-08T02:21:58;3.77;;;3.23;;
5357;SDS011;2702;51.014;7.170;2023-08-08T02:24:24;5.03;;;3.13;;
5357;SDS011;2702;51.014;7.170;2023-08-08T02:26:50;4.70;;;4.20;;
5357;SDS011;2702;51.014;7.170;2023-08-08T02:29:17;3.30;;;3.00;;
5357;SDS011;2702;51.014;7.170;2023-08-08T02:31:43;3.80;;;3.10;;
5357;SDS011;2702;51.014;7.170;2023-08-08T02:34:09;4.70;;;3.50;;
5357;SDS011;2702;51.014;7.170;2023-08-08T02:36:36;3.70;;;3.40;;
5357;SDS011;2702;51.014;7.170;2023-08-08T02:39:02;4.00;;;3.70;;
5357;SDS011;2702;51.014;7.170;2023-08-08T02:41:28;4.40;;;3.20;;
5357;SDS011;2702;51.014;7.170;2023-08-08T02:43:55;5.20;;;3.03;;
5357;SDS011;2702;51.014;7.170;2023-08-08T02:46:22;4.80;;;4.40;;
5357;SDS011;2702;51.014;7.170;2023-08-08T02:48:49;3.93;;;3.20;;
5357;SDS011;2702;51.014;7.170;2023-08-08T02:51:16;3.40;;;3.10;;
5357;SDS011;2702;51.014;7.170;2023-08-08T02:53:42;4.73;;;3.30;;
5357;SDS011;2702;51.014;7.170;2023-08-08T02:56:09;3.93;;;3.13;;
5357;SDS011;2702;51.014;7.170;2023-08-08T02:58:39;3.87;;;3.57;;
5357;SDS011;2702;51.014;7.170;2023-08-08T03:01:07;3.60;;;3.20;;
5357;SDS011;2702;51.014;7.170;2023-08-08T03:03:33;3.67;;;3.27;;
5357;SDS011;2702;51.014;7.170;2023-08-08T03:06:00;3.50;;;2.93;;
5357;SDS011;2702;51.014;7.170;2023-08-08T03:08:27;4.83;;;3.30;;
5357;SDS011;2702;51.014;7.170;2023-08-08T03:10:55;3.50;;;3.20;;
5357;SDS011;2702;51.014;7.170;2023-08-08T03:13:22;3.50;;;3.07;;
5357;SDS011;2702;51.014;7.170;2023-08-08T03:15:49;6.33;;;3.33;;
5357;SDS011;2702;51.014;7.170;2023-08-08T03:18:15;5.00;;;2.90;;
5357;SDS011;2702;51.014;7.170;2023-08-08T03:20:42;3.67;;;3.30;;
5357;SDS011;2702;51.014;7.170;2023-08-08T03:23:09;4.20;;;3.90;;
5357;SDS011;2702;51.014;7.170;2023-08-08T03:25:37;4.90;;;3.30;;
5357;SDS011;2702;51.014;7.170;2023-08-08T03:28:03;3.10;;;2.90;;
5357;SDS011;2702;51.014;7.170;2023-08-08T03:30:30;3.13;;;2.87;;
5357;SDS011;2702;51.014;7.170;2023-08-08T03:32:57;3.13;;;2.83;;
5357;SDS011;2702;51.014;7.170;2023-08-08T03:35:23;3.30;;;2.90;;
5357;SDS011;2702;51.014;7.170;2023-08-08T03:37:51;5.97;;;2.87;;
5357;SDS011;2702;51.014;7.170;2023-08-08T03:40:17;4.80;;;3.23;;
5357;SDS011;2702;51.014;7.170;2023-08-08T03:42:44;3.73;;;3.20;;
5357;SDS011;2702;51.014;7.170;2023-08-08T03:45:10;4.83;;;3.20;;
5357;SDS011;2702;51.014;7.170;2023-08-08T03:47:37;5.17;;;3.03;;
5357;SDS011;2702;51.014;7.170;2023-08-08T03:50:03;3.20;;;2.90;;
5357;SDS011;2702;51.014;7.170;2023-08-08T03:52:31;4.17;;;3.20;;
5357;SDS011;2702;51.014;7.170;2023-08-08T03:55:00;3.70;;;2.87;;
5357;SDS011;2702;51.014;7.170;2023-08-08T03:57:26;3.23;;;2.93;;
5357;SDS011;2702;51.014;7.170;2023-08-08T03:59:53;4.30;;;3.37;;
5357;SDS011;2702;51.014;7.170;2023-08-08T04:02:19;3.30;;;3.00;;
5357;SDS011;2702;51.014;7.170;2023-08-08T04:04:46;3.80;;;3.00;;
5357;SDS011;2702;51.014;7.170;2023-08-08T04:07:13;5.87;;;3.20;;
5357;SDS011;2702;51.014;7.170;2023-08-08T04:09:39;4.10;;;3.43;;
5357;SDS011;2702;51.014;7.170;2023-08-08T04:12:06;5.30;;;2.83;;
5357;SDS011;2702;51.014;7.170;2023-08-08T04:14:33;4.03;;;3.13;;
5357;SDS011;2702;51.014;7.170;2023-08-08T04:16:59;3.67;;;3.13;;
5357;SDS011;2702;51.014;7.170;2023-08-08T04:19:25;4.40;;;3.53;;
5357;SDS011;2702;51.014;7.170;2023-08-08T04:21:52;4.20;;;3.70;;
5357;SDS011;2702;51.014;7.170;2023-08-08T04:24:18;6.00;;;3.70;;
5357;SDS011;2702;51.014;7.170;2023-08-08T04:26:45;3.80;;;3.20;;
5357;SDS011;2702;51.014;7.170;2023-08-08T04:29:11;4.00;;;3.47;;
5357;SDS011;2702;51.014;7.170;2023-08-08T04:31:37;6.60;;;3.67;;
5357;SDS011;2702;51.014;7.170;2023-08-08T04:34:04;3.23;;;2.93;;
5357;SDS011;2702;51.014;7.170;2023-08-08T04:36:30;3.97;;;2.93;;
5357;SDS011;2702;51.014;7.170;2023-08-08T04:38:56;3.67;;;3.30;;
5357;SDS011;2702;51.014;7.170;2023-08-08T04:41:23;5.30;;;3.20;;
5357;SDS011;2702;51.014;7.170;2023-08-08T04:43:49;4.30;;;2.87;;
5357;SDS011;2702;51.014;7.170;2023-08-08T04:46:16;5.00;;;3.53;;
5357;SDS011;2702;51.014;7.170;2023-08-08T04:48:42;5.50;;;3.70;;
5357;SDS011;2702;51.014;7.170;2023-08-08T04:51:08;8.53;;;3.60;;
5357;SDS011;2702;51.014;7.170;2023-08-08T04:53:35;4.67;;;3.00;;
5357;SDS011;2702;51.014;7.170;2023-08-08T04:56:02;4.27;;;3.87;;
5357;SDS011;2702;51.014;7.170;2023-08-08T04:58:31;4.80;;;3.87;;
5357;SDS011;2702;51.014;7.170;2023-08-08T05:00:57;5.00;;;4.37;;
5357;SDS011;2702;51.014;7.170;2023-08-08T05:03:24;4.63;;;3.63;;
5357;SDS011;2702;51.014;7.170;2023-08-08T05:05:50;3.73;;;3.20;;
5357;SDS011;2702;51.014;7.170;2023-08-08T05:08:16;5.33;;;3.77;;
5357;SDS011;2702;51.014;7.170;2023-08-08T05:10:43;3.77;;;3.37;;
5357;SDS011;2702;51.014;7.170;2023-08-08T05:13:09;5.73;;;3.63;;
5357;SDS011;2702;51.014;7.170;2023-08-08T05:15:36;3.43;;;3.03;;
5357;SDS011;2702;51.014;7.170;2023-08-08T05:18:02;4.60;;;3.47;;
5357;SDS011;2702;51.014;7.170;2023-08-08T05:20:29;3.50;;;3.20;;
5357;SDS011;2702;51.014;7.170;2023-08-08T05:22:55;4.17;;;3.77;;
5357;SDS011;2702;51.014;7.170;2023-08-08T05:25:21;4.97;;;3.57;;
5357;SDS011;2702;51.014;7.170;2023-08-08T05:27:48;4.47;;;3.53;;
5357;SDS011;2702;51.014;7.170;2023-08-08T05:30:15;5.77;;;3.67;;
5357;SDS011;2702;51.014;7.170;2023-08-08T05:32:42;7.50;;;4.50;;
5357;SDS011;2702;51.014;7.170;2023-08-08T05:35:08;6.33;;;3.50;;
5357;SDS011;2702;51.014;7.170;2023-08-08T05:37:35;6.57;;;3.70;;
5357;SDS011;2702;51.014;7.170;2023-08-08T05:40:01;4.53;;;4.00;;
5357;SDS011;2702;51.014;7.170;2023-08-08T05:42:28;5.17;;;3.80;;
5357;SDS011;2702;51.014;7.170;2023-08-08T05:44:54;5.33;;;3.50;;
5357;SDS011;2702;51.014;7.170;2023-08-08T05:47:21;5.60;;;3.70;;
5357;SDS011;2702;51.014;7.170;2023-08-08T05:49:47;4.37;;;3.90;;
5357;SDS011;2702;51.014;7.170;2023-08-08T05:52:13;6.93;;;4.30;;
5357;SDS011;2702;51.014;7.170;2023-08-08T05:54:40;3.70;;;3.33;;
5357;SDS011;2702;51.014;7.170;2023-08-08T05:57:07;6.30;;;4.83;;
5357;SDS011;2702;51.014;7.170;2023-08-08T05:59:33;4.00;;;3.70;;
5357;SDS011;2702;51.014;7.170;2023-08-08T06:02:00;5.57;;;4.20;;
5357;SDS011;2702;51.014;7.170;2023-08-08T06:04:26;6.40;;;4.47;;
5357;SDS011;2702;51.014;7.170;2023-08-08T06:06:53;5.50;;;4.90;;
5357;SDS011;2702;51.014;7.170;2023-08-08T06:09:19;7.00;;;4.97;;
5357;SDS011;2702;51.014;7.170;2023-08-08T06:11:45;4.90;;;4.37;;
5357;SDS011;2702;51.014;7.170;2023-08-08T06:14:12;7.00;;;3.73;;
5357;SDS011;2702;51.014;7.170;2023-08-08T06:16:38;6.00;;;4.90;;
5357;SDS011;2702;51.014;7.170;2023-08-08T06:19:04;7.07;;;4.73;;
5357;SDS011;2702;51.014;7.170;2023-08-08T06:21:31;5.67;;;4.70;;
5357;SDS011;2702;51.014;7.170;2023-08-08T06:23:58;5.87;;;5.20;;
5357;SDS011;2702;51.014;7.170;2023-08-08T06:26:25;7.10;;;4.77;;
5357;SDS011;2702;51.014;7.170;2023-08-08T06:28:51;8.50;;;4.97;;
5357;SDS011;2702;51.014;7.170;2023-08-08T06:31:18;9.07;;;6.33;;
5357;SDS011;2702;51.014;7.170;2023-08-08T06:33:44;8.03;;;5.30;;
5357;SDS011;2702;51.014;7.170;2023-08-08T06:36:11;7.87;;;5.10;;
5357;SDS011;2702;51.014;7.170;2023-08-08T06:38:37;8.40;;;5.47;;
5357;SDS011;2702;51.014;7.170;2023-08-08T06:41:04;6.00;;;5.40;;
5357;SDS011;2702;51.014;7.170;2023-08-08T06:43:30;7.53;;;5.37;;
5357;SDS011;2702;51.014;7.170;2023-08-08T06:45:57;6.50;;;5.20;;
5357;SDS011;2702;51.014;7.170;2023-08-08T06:48:24;6.20;;;5.13;;
5357;SDS011;2702;51.014;7.170;2023-08-08T06:50:50;8.30;;;5.43;;
5357;SDS011;2702;51.014;7.170;2023-08-08T06:53:17;5.30;;;4.80;;
5357;SDS011;2702;51.014;7.170;2023-08-08T06:55:44;9.50;;;4.87;;
5357;SDS011;2702;51.014;7.170;2023-08-08T06:58:10;5.87;;;4.87;;
5357;SDS011;2702;51.014;7.170;2023-08-08T07:00:37;6.77;;;5.80;;
5357;SDS011;2702;51.014;7.170;2023-08-08T07:03:03;6.33;;;4.67;;
5357;SDS011;2702;51.014;7.170;2023-08-08T07:05:30;6.60;;;4.97;;
5357;SDS011;2702;51.014;7.170;2023-08-08T07:07:56;6.00;;;5.00;;
5357;SDS011;2702;51.014;7.170;2023-08-08T07:10:23;5.37;;;4.90;;
5357;SDS011;2702;51.014;7.170;2023-08-08T07:12:49;6.40;;;5.27;;
5357;SDS011;2702;51.014;7.170;2023-08-08T07:15:15;6.03;;;4.23;;
5357;SDS011;2702;51.014;7.170;2023-08-08T07:17:42;7.63;;;4.17;;
5357;SDS011;2702;51.014;7.170;2023-08-08T07:20:08;10.47;;;5.00;;
5357;SDS011;2702;51.014;7.170;2023-08-08T07:22:39;10.50;;;6.03;;
5357;SDS011;2702;51.014;7.170;2023-08-08T07:25:06;4.87;;;4.10;;
5357;SDS011;2702;51.014;7.170;2023-08-08T07:27:32;13.43;;;5.73;;
5357;SDS011;2702;51.014;7.170;2023-08-08T07:29:59;8.50;;;5.60;;
5357;SDS011;2702;51.014;7.170;2023-08-08T07:32:27;8.10;;;6.00;;
5357;SDS011;2702;51.014;7.170;2023-08-08T07:34:53;6.47;;;5.00;;
5357;SDS011;2702;51.014;7.170;2023-08-08T07:37:19;7.63;;;5.57;;
5357;SDS011;2702;51.014;7.170;2023-08-08T07:39:46;5.93;;;5.33;;
5357;SDS011;2702;51.014;7.170;2023-08-08T07:42:16;12.40;;;5.70;;
5357;SDS011;2702;51.014;7.170;2023-08-08T07:44:42;9.70;;;5.90;;
5357;SDS011;2702;51.014;7.170;2023-08-08T07:47:09;9.50;;;6.83;;
5357;SDS011;2702;51.014;7.170;2023-08-08T07:49:35;8.87;;;6.03;;
5357;SDS011;2702;51.014;7.170;2023-08-08T07:52:01;5.40;;;4.90;;
5357;SDS011;2702;51.014;7.170;2023-08-08T07:54:28;8.03;;;6.60;;
5357;SDS011;2702;51.014;7.170;2023-08-08T07:56:55;9.80;;;6.90;;
5357;SDS011;2702;51.014;7.170;2023-08-08T07:59:21;7.67;;;6.43;;
5357;SDS011;2702;51.014;7.170;2023-08-08T08:01:48;7.20;;;6.40;;
5357;SDS011;2702;51.014;7.170;2023-08-08T08:04:14;13.27;;;7.27;;
5357;SDS011;2702;51.014;7.170;2023-08-08T08:06:40;7.33;;;6.63;;
5357;SDS011;2702;51.014;7.170;2023-08-08T08:09:07;11.13;;;6.60;;
5357;SDS011;2702;51.014;7.170;2023-08-08T08:11:33;8.53;;;5.50;;
5357;SDS011;2702;51.014;7.170;2023-08-08T08:13:59;7.07;;;5.73;;
5357;SDS011;2702;51.014;7.170;2023-08-08T08:16:26;10.37;;;6.30;;
5357;SDS011;2702;51.014;7.170;2023-08-08T08:18:52;7.50;;;6.80;;
5357;SDS011;2702;51.014;7.170;2023-08-08T08:21:18;10.93;;;6.37;;
5357;SDS011;2702;51.014;7.170;2023-08-08T08:23:45;7.17;;;6.33;;
5357;SDS011;2702;51.014;7.170;2023-08-08T08:26:12;7.73;;;5.40;;
5357;SDS011;2702;51.014;7.170;2023-08-08T08:28:38;10.80;;;5.50;;
5357;SDS011;2702;51.014;7.170;2023-08-08T08:31:06;8.33;;;5.63;;
5357;SDS011;2702;51.014;7.170;2023-08-08T08:33:33;7.10;;;5.80;;
5357;SDS011;2702;51.014;7.170;2023-08-08T08:35:59;8.03;;;6.30;;
5357;SDS011;2702;51.014;7.170;2023-08-08T08:38:26;11.03;;;5.97;;
5357;SDS011;2702;51.014;7.170;2023-08-08T08:40:53;10.03;;;5.93;;
5357;SDS011;2702;51.014;7.170;2023-08-08T08:43:21;6.80;;;5.20;;
5357;SDS011;2702;51.014;7.170;2023-08-08T08:45:50;6.37;;;5.63;;
5357;SDS011;2702;51.014;7.170;2023-08-08T08:48:19;9.40;;;5.20;;
5357;SDS011;2702;51.014;7.170;2023-08-08T08:50:47;6.90;;;5.20;;
5357;SDS011;2702;51.014;7.170;2023-08-08T08:53:15;6.90;;;5.77;;
5357;SDS011;2702;51.014;7.170;2023-08-08T08:55:43;8.43;;;5.80;;
5357;SDS011;2702;51.014;7.170;2023-08-08T08:58:10;7.20;;;5.73;;
5357;SDS011;2702;51.014;7.170;2023-08-08T09:00:39;6.90;;;6.20;;
5357;SDS011;2702;51.014;7.170;2023-08-08T09:03:07;6.97;;;6.30;;
5357;SDS011;2702;51.014;7.170;2023-08-08T09:05:33;8.37;;;6.83;;
5357;SDS011;2702;51.014;7.170;2023-08-08T09:08:01;7.83;;;7.20;;
5357;SDS011;2702;51.014;7.170;2023-08-08T09:10:27;10.90;;;7.67;;
5357;SDS011;2702;51.014;7.170;2023-08-08T09:12:57;14.17;;;7.80;;
5357;SDS011;2702;51.014;7.170;2023-08-08T09:15:24;11.93;;;7.70;;
5357;SDS011;2702;51.014;7.170;2023-08-08T09:17:50;8.90;;;7.20;;
5357;SDS011;2702;51.014;7.170;2023-08-08T09:20:18;9.00;;;7.47;;
5357;SDS011;2702;51.014;7.170;2023-08-08T09:22:44;9.50;;;7.50;;
5357;SDS011;2702;51.014;7.170;2023-08-08T09:25:10;8.10;;;7.30;;
5357;SDS011;2702;51.014;7.170;2023-08-08T09:27:37;11.33;;;8.40;;
5357;SDS011;2702;51.014;7.170;2023-08-08T09:30:04;10.87;;;7.70;;
5357;SDS011;2702;51.014;7.170;2023-08-08T09:32:31;16.90;;;8.37;;
5357;SDS011;2702;51.014;7.170;2023-08-08T09:34:58;9.70;;;7.47;;
5357;SDS011;2702;51.014;7.170;2023-08-08T09:37:25;12.20;;;8.50;;
5357;SDS011;2702;51.014;7.170;2023-08-08T09:40:00;8.70;;;7.80;;
5357;SDS011;2702;51.014;7.170;2023-08-08T09:42:33;9.50;;;8.60;;
5357;SDS011;2702;51.014;7.170;2023-08-08T09:45:01;10.30;;;7.83;;
5357;SDS011;2702;51.014;7.170;2023-08-08T09:47:28;13.17;;;8.80;;
5357;SDS011;2702;51.014;7.170;2023-08-08T09:50:00;10.10;;;9.10;;
5357;SDS011;2702;51.014;7.170;2023-08-08T09:52:30;9.10;;;8.40;;
5357;SDS011;2702;51.014;7.170;2023-08-08T09:54:58;14.20;;;9.50;;
5357;SDS011;2702;51.014;7.170;2023-08-08T09:57:26;9.93;;;8.90;;
5357;SDS011;2702;51.014;7.170;2023-08-08T09:59:52;12.37;;;9.50;;
5357;SDS011;2702;51.014;7.170;2023-08-08T10:02:19;13.17;;;10.50;;
5357;SDS011;2702;51.014;7.170;2023-08-08T10:04:45;12.10;;;9.60;;
5357;SDS011;2702;51.014;7.170;2023-08-08T10:07:12;12.97;;;10.70;;
5357;SDS011;2702;51.014;7.170;2023-08-08T10:09:38;10.97;;;9.73;;
5357;SDS011;2702;51.014;7.170;2023-08-08T10:12:05;12.63;;;10.63;;
5357;SDS011;2702;51.014;7.170;2023-08-08T10:14:34;12.17;;;10.97;;
5357;SDS011;2702;51.014;7.170;2023-08-08T10:17:04;13.87;;;11.20;;
5357;SDS011;2702;51.014;7.170;2023-08-08T10:19:32;12.53;;;11.23;;
5357;SDS011;2702;51.014;7.170;2023-08-08T10:21:59;13.07;;;11.30;;
5357;SDS011;2702;51.014;7.170;2023-08-08T10:24:35;12.30;;;10.57;;
5357;SDS011;2702;51.014;7.170;2023-08-08T10:27:04;11.80;;;10.00;;
5357;SDS011;2702;51.014;7.170;2023-08-08T10:29:32;11.43;;;10.30;;
5357;SDS011;2702;51.014;7.170;2023-08-08T10:31:59;14.03;;;10.60;;
5357;SDS011;2702;51.014;7.170;2023-08-08T10:34:37;13.10;;;10.37;;
5357;SDS011;2702;51.014;7.170;2023-08-08T10:37:12;11.23;;;10.10;;
5357;SDS011;2702;51.014;7.170;2023-08-08T10:39:53;9.57;;;8.67;;
5357;SDS011;2702;51.014;7.170;2023-08-08T10:42:24;10.13;;;8.80;;
5357;SDS011;2702;51.014;7.170;2023-08-08T10:44:56;8.00;;;7.20;;
5357;SDS011;2702;51.014;7.170;2023-08-08T10:47:24;7.07;;;6.37;;
5357;SDS011;2702;51.014;7.170;2023-08-08T10:49:58;9.03;;;6.60;;
5357;SDS011;2702;51.014;7.170;2023-08-08T10:52:28;6.50;;;5.90;;
5357;SDS011;2702;51.014;7.170;2023-08-08T10:54:55;8.90;;;5.57;;
5357;SDS011;2702;51.014;7.170;2023-08-08T10:57:25;8.00;;;5.97;;
5357;SDS011;2702;51.014;7.170;2023-08-08T10:59:53;6.47;;;4.80;;
5357;SDS011;2702;51.014;7.170;2023-08-08T11:02:20;6.67;;;5.20;;
5357;SDS011;2702;51.014;7.170;2023-08-08T11:04:48;6.30;;;4.80;;
5357;SDS011;2702;51.014;7.170;2023-08-08T11:07:15;6.90;;;6.00;;
5357;SDS011;2702;51.014;7.170;2023-08-08T11:09:43;5.57;;;5.17;;
5357;SDS011;2702;51.014;7.170;2023-08-08T11:12:15;6.40;;;5.43;;
5357;SDS011;2702;51.014;7.170;2023-08-08T11:14:42;5.67;;;5.13;;
5357;SDS011;2702;51.014;7.170;2023-08-08T11:17:09;5.43;;;4.97;;
5357;SDS011;2702;51.014;7.170;2023-08-08T11:19:40;6.57;;;4.60;;
5357;SDS011;2702;51.014;7.170;2023-08-08T11:22:10;6.30;;;5.13;;
5357;SDS011;2702;51.014;7.170;2023-08-08T11:24:39;6.80;;;4.63;;
5357;SDS011;2702;51.014;7.170;2023-08-08T11:27:06;6.30;;;4.60;;
5357;SDS011;2702;51.014;7.170;2023-08-08T11:29:32;5.73;;;4.50;;
5357;SDS011;2702;51.014;7.170;2023-08-08T11:31:59;6.10;;;4.30;;
5357;SDS011;2702;51.014;7.170;2023-08-08T11:34:29;7.20;;;4.90;;
5357;SDS011;2702;51.014;7.170;2023-08-08T11:36:58;5.30;;;3.77;;
5357;SDS011;2702;51.014;7.170;2023-08-08T11:39:26;4.33;;;3.90;;
5357;SDS011;2702;51.014;7.170;2023-08-08T11:41:53;4.20;;;3.43;;
5357;SDS011;2702;51.014;7.170;2023-08-08T11:44:19;5.40;;;3.50;;
5357;SDS011;2702;51.014;7.170;2023-08-08T11:46:46;3.97;;;3.20;;
5357;SDS011;2702;51.014;7.170;2023-08-08T11:49:13;5.87;;;3.03;;
5357;SDS011;2702;51.014;7.170;2023-08-08T11:51:43;4.80;;;3.40;;
5357;SDS011;2702;51.014;7.170;2023-08-08T11:54:11;3.90;;;3.10;;
5357;SDS011;2702;51.014;7.170;2023-08-08T11:56:38;4.10;;;3.63;;
5357;SDS011;2702;51.014;7.170;2023-08-08T11:59:05;4.40;;;3.00;;
5357;SDS011;2702;51.014;7.170;2023-08-08T12:01:32;6.20;;;3.53;;
5357;SDS011;2702;51.014;7.170;2023-08-08T12:04:07;6.40;;;2.83;;
5357;SDS011;2702;51.014;7.170;2023-08-08T12:06:36;2.93;;;2.70;;
5357;SDS011;2702;51.014;7.170;2023-08-08T12:09:12;3.53;;;2.83;;
5357;SDS011;2702;51.014;7.170;2023-08-08T12:11:39;3.00;;;2.80;;
5357;SDS011;2702;51.014;7.170;2023-08-08T12:14:07;4.00;;;2.90;;
5357;SDS011;2702;51.014;7.170;2023-08-08T12:16:36;7.40;;;3.83;;
5357;SDS011;2702;51.014;7.170;2023-08-08T12:19:07;5.73;;;3.20;;
5357;SDS011;2702;51.014;7.170;2023-08-08T12:21:37;4.90;;;3.40;;
5357;SDS011;2702;51.014;7.170;2023-08-08T12:24:03;5.00;;;2.60;;
5357;SDS011;2702;51.014;7.170;2023-08-08T12:26:29;4.27;;;2.77;;
5357;SDS011;2702;51.014;7.170;2023-08-08T12:28:56;3.43;;;2.80;;
5357;SDS011;2702;51.014;7.170;2023-08-08T12:31:22;4.50;;;2.93;;
5357;SDS011;2702;51.014;7.170;2023-08-08T12:33:48;3.17;;;2.87;;
5357;SDS011;2702;51.014;7.170;2023-08-08T12:36:15;4.97;;;2.53;;
5357;SDS011;2702;51.014;7.170;2023-08-08T12:38:41;4.27;;;2.93;;
5357;SDS011;2702;51.014;7.170;2023-08-08T12:41:08;3.27;;;2.60;;
5357;SDS011;2702;51.014;7.170;2023-08-08T12:43:36;4.20;;;2.57;;
5357;SDS011;2702;51.014;7.170;2023-08-08T12:46:02;2.60;;;2.40;;
5357;SDS011;2702;51.014;7.170;2023-08-08T12:48:29;3.30;;;2.23;;
5357;SDS011;2702;51.014;7.170;2023-08-08T12:50:55;3.27;;;2.10;;
5357;SDS011;2702;51.014;7.170;2023-08-08T12:53:22;4.57;;;1.80;;
5357;SDS011;2702;51.014;7.170;2023-08-08T12:55:48;4.20;;;3.80;;
5357;SDS011;2702;51.014;7.170;2023-08-08T12:58:15;4.20;;;3.80;;
5357;SDS011;2702;51.014;7.170;2023-08-08T13:00:43;4.83;;;4.47;;
5357;SDS011;2702;51.014;7.170;2023-08-08T13:03:09;5.07;;;4.40;;
5357;SDS011;2702;51.014;7.170;2023-08-08T13:05:37;5.80;;;5.00;;
5357;SDS011;2702;51.014;7.170;2023-08-08T13:08:04;6.90;;;5.20;;
5357;SDS011;2702;51.014;7.170;2023-08-08T13:10:30;5.67;;;5.17;;
5357;SDS011;2702;51.014;7.170;2023-08-08T13:12:57;6.50;;;5.10;;
5357;SDS011;2702;51.014;7.170;2023-08-08T13:15:23;6.07;;;5.57;;
5357;SDS011;2702;51.014;7.170;2023-08-08T13:17:49;6.60;;;5.97;;
5357;SDS011;2702;51.014;7.170;2023-08-08T13:20:16;6.47;;;5.97;;
5357;SDS011;2702;51.014;7.170;2023-08-08T13:22:42;6.23;;;5.17;;
5357;SDS011;2702;51.014;7.170;2023-08-08T13:25:09;7.83;;;5.87;;
5357;SDS011;2702;51.014;7.170;2023-08-08T13:27:36;5.90;;;5.17;;
5357;SDS011;2702;51.014;7.170;2023-08-08T13:30:03;6.83;;;6.00;;
5357;SDS011;2702;51.014;7.170;2023-08-08T13:32:30;9.47;;;6.00;;
5357;SDS011;2702;51.014;7.170;2023-08-08T13:34:57;6.70;;;6.10;;
5357;SDS011;2702;51.014;7.170;2023-08-08T13:37:23;6.87;;;5.57;;
5357;SDS011;2702;51.014;7.170;2023-08-08T13:39:49;6.47;;;5.77;;
5357;SDS011;2702;51.014;7.170;2023-08-08T13:42:16;6.23;;;5.63;;
5357;SDS011;2702;51.014;7.170;2023-08-08T13:44:42;8.23;;;6.10;;
5357;SDS011;2702;51.014;7.170;2023-08-08T13:47:09;7.10;;;6.20;;
5357;SDS011;2702;51.014;7.170;2023-08-08T13:49:35;7.73;;;6.20;;
5357;SDS011;2702;51.014;7.170;2023-08-08T13:52:01;5.73;;;5.20;;
5357;SDS011;2702;51.014;7.170;2023-08-08T13:54:28;5.47;;;4.97;;
5357;SDS011;2702;51.014;7.170;2023-08-08T13:56:54;6.40;;;5.20;;
5357;SDS011;2702;51.014;7.170;2023-08-08T13:59:21;7.10;;;5.37;;
5357;SDS011;2702;51.014;7.170;2023-08-08T14:01:47;5.10;;;4.70;;
5357;SDS011;2702;51.014;7.170;2023-08-08T14:04:13;5.60;;;5.10;;
5357;SDS011;2702;51.014;7.170;2023-08-08T14:06:40;5.43;;;4.10;;
5357;SDS011;2702;51.014;7.170;2023-08-08T14:09:06;7.33;;;4.07;;
5357;SDS011;2702;51.014;7.170;2023-08-08T14:11:33;11.53;;;4.83;;
5357;SDS011;2702;51.014;7.170;2023-08-08T14:13:59;5.83;;;3.97;;
5357;SDS011;2702;51.014;7.170;2023-08-08T14:16:25;4.77;;;4.00;;
5357;SDS011;2702;51.014;7.170;2023-08-08T14:18:52;8.03;;;4.23;;
5357;SDS011;2702;51.014;7.170;2023-08-08T14:21:18;3.17;;;2.40;;
5357;SDS011;2702;51.014;7.170;2023-08-08T14:23:45;2.57;;;2.23;;
5357;SDS011;2702;51.014;7.170;2023-08-08T14:26:12;3.30;;;2.17;;
5357;SDS011;2702;51.014;7.170;2023-08-08T14:28:39;5.80;;;2.40;;
5357;SDS011;2702;51.014;7.170;2023-08-08T14:31:05;2.87;;;2.23;;
5357;SDS011;2702;51.014;7.170;2023-08-08T14:33:32;5.13;;;2.43;;
5357;SDS011;2702;51.014;7.170;2023-08-08T14:35:59;5.40;;;2.40;;
5357;SDS011;2702;51.014;7.170;2023-08-08T14:38:25;4.43;;;3.20;;
5357;SDS011;2702;51.014;7.170;2023-08-08T14:40:52;4.50;;;2.40;;
5357;SDS011;2702;51.014;7.170;2023-08-08T14:43:18;6.43;;;2.80;;
5357;SDS011;2702;51.014;7.170;2023-08-08T14:45:45;2.50;;;2.30;;
5357;SDS011;2702;51.014;7.170;2023-08-08T14:48:11;2.73;;;2.53;;
5357;SDS011;2702;51.014;7.170;2023-08-08T14:50:37;2.47;;;1.83;;
5357;SDS011;2702;51.014;7.170;2023-08-08T14:53:03;4.17;;;2.40;;
5357;SDS011;2702;51.014;7.170;2023-08-08T14:55:29;2.90;;;1.90;;
5357;SDS011;2702;51.014;7.170;2023-08-08T14:57:56;5.00;;;2.77;;
5357;SDS011;2702;51.014;7.170;2023-08-08T15:00:22;2.33;;;2.23;;
5357;SDS011;2702;51.014;7.170;2023-08-08T15:02:48;2.60;;;2.40;;
5357;SDS011;2702;51.014;7.170;2023-08-08T15:05:14;5.37;;;2.43;;
5357;SDS011;2702;51.014;7.170;2023-08-08T15:07:41;3.20;;;2.47;;
5357;SDS011;2702;51.014;7.170;2023-08-08T15:10:08;4.63;;;2.67;;
5357;SDS011;2702;51.014;7.170;2023-08-08T15:12:34;3.97;;;1.90;;
5357;SDS011;2702;51.014;7.170;2023-08-08T15:15:01;3.20;;;2.10;;